createdAt,value
2022-11-19T00:01:27.920Z,35.33
2022-11-19T00:03:55.336Z,34.33
2022-11-19T00:06:24.862Z,35.20
2022-11-19T00:08:52.330Z,35.45
2022-11-19T00:11:41.968Z,34.72
2022-11-19T00:14:10.672Z,34.85
2022-11-19T00:16:38.079Z,34.80
2022-11-19T00:19:06.259Z,34.45
2022-11-19T00:21:33.591Z,34.28
2022-11-19T00:24:00.807Z,32.03
2022-11-19T00:26:28.126Z,34.53
2022-11-19T00:28:55.494Z,35.03
2022-11-19T00:31:22.773Z,36.22
2022-11-19T00:33:54.594Z,33.55
2022-11-19T00:36:22.912Z,34.35
2022-11-19T00:38:50.374Z,35.30
2022-11-19T00:41:17.592Z,34.67
2022-11-19T00:43:47.796Z,35.72
2022-11-19T00:46:19.368Z,34.80
2022-11-19T00:48:48.551Z,36.67
2022-11-19T00:51:17.665Z,34.75
2022-11-19T00:53:45.146Z,36.15
2022-11-19T00:56:15.006Z,35.97
2022-11-19T00:58:42.682Z,34.50
2022-11-19T01:01:10.883Z,35.07
2022-11-19T01:03:39.373Z,32.83
2022-11-19T01:06:08.094Z,34.93
2022-11-19T01:08:35.966Z,34.72
2022-11-19T01:11:15.313Z,34.80
2022-11-19T01:13:42.663Z,36.35
2022-11-19T01:16:13.197Z,34.72
2022-11-19T01:18:42.124Z,34.78
2022-11-19T01:21:11.081Z,36.28
2022-11-19T01:23:39.871Z,36.95
2022-11-19T01:26:07.809Z,36.20
2022-11-19T01:28:35.760Z,36.35
2022-11-19T01:31:20.674Z,37.40
2022-11-19T01:33:48.510Z,36.70
2022-11-19T01:36:33.869Z,36.30
2022-11-19T01:39:01.097Z,36.67
2022-11-19T01:41:30.972Z,36.33
2022-11-19T01:44:01.796Z,37.80
2022-11-19T01:46:35.031Z,39.10
2022-11-19T01:49:22.622Z,37.90
2022-11-19T01:51:58.378Z,38.00
2022-11-19T01:54:30.161Z,36.63
2022-11-19T01:57:03.469Z,36.08
2022-11-19T01:59:31.605Z,35.97
2022-11-19T02:01:59.142Z,38.70
2022-11-19T02:04:27.639Z,37.40
2022-11-19T02:06:55.897Z,37.78
2022-11-19T02:09:24.353Z,37.05
2022-11-19T02:12:19.361Z,37.22
2022-11-19T02:14:49.301Z,36.78
2022-11-19T02:17:29.934Z,39.53
2022-11-19T02:20:08.801Z,38.28
2022-11-19T02:23:23.501Z,41.45
2022-11-19T02:26:17.414Z,40.75
2022-11-19T02:28:51.231Z,39.57
2022-11-19T02:31:50.836Z,40.78
2022-11-19T02:34:26.289Z,41.15
2022-11-19T02:37:11.100Z,40.75
2022-11-19T02:39:51.156Z,41.67
2022-11-19T02:42:47.365Z,40.17
2022-11-19T02:45:35.123Z,41.75
2022-11-19T02:48:23.645Z,41.70
2022-11-19T02:50:54.885Z,39.97
2022-11-19T02:53:23.524Z,41.80
2022-11-19T02:56:09.566Z,42.53
2022-11-19T02:59:13.689Z,42.78
2022-11-19T03:02:02.261Z,41.83
2022-11-19T03:04:30.707Z,40.28
2022-11-19T03:07:12.354Z,41.80
2022-11-19T03:09:47.507Z,40.03
2022-11-19T03:12:17.471Z,41.05
2022-11-19T03:15:14.622Z,40.83
2022-11-19T03:18:02.458Z,41.83
2022-11-19T03:20:35.377Z,38.55
2022-11-19T03:23:06.725Z,39.47
2022-11-19T03:25:58.228Z,40.28
2022-11-19T03:28:30.900Z,40.47
2022-11-19T03:30:59.441Z,40.03
2022-11-19T03:33:29.289Z,41.63
2022-11-19T03:36:07.601Z,41.58
2022-11-19T03:38:40.999Z,39.95
2022-11-19T03:41:10.140Z,38.55
2022-11-19T03:43:41.741Z,39.10
2022-11-19T03:46:15.429Z,41.13
2022-11-19T03:48:46.226Z,39.22
2022-11-19T03:51:18.416Z,39.30
2022-11-19T03:53:45.715Z,39.90
2022-11-19T03:56:16.499Z,39.17
2022-11-19T03:58:46.071Z,39.90
2022-11-19T04:01:14.006Z,39.70
2022-11-19T04:04:01.175Z,38.55
2022-11-19T04:06:28.330Z,39.22
2022-11-19T04:08:55.526Z,39.65
2022-11-19T04:13:48.807Z,37.55
2022-11-19T04:16:15.954Z,36.40
2022-11-19T04:18:43.105Z,38.60
2022-11-19T04:21:10.252Z,39.05
2022-11-19T04:23:37.462Z,37.43
2022-11-19T04:26:04.744Z,38.65
2022-11-19T04:28:31.929Z,37.97
2022-11-19T04:30:59.101Z,37.40
2022-11-19T04:33:26.281Z,36.65
2022-11-19T04:35:53.480Z,38.13
2022-11-19T04:38:20.609Z,37.97
2022-11-19T04:40:47.816Z,36.65
2022-11-19T04:43:15.013Z,37.97
2022-11-19T04:45:42.152Z,38.67
2022-11-19T04:48:09.292Z,36.47
2022-11-19T04:50:36.452Z,36.63
2022-11-19T04:53:03.748Z,36.47
2022-11-19T04:55:30.900Z,37.38
2022-11-19T04:57:58.182Z,37.55
2022-11-19T05:00:25.475Z,37.72
2022-11-19T05:02:52.651Z,36.72
2022-11-19T05:05:19.821Z,37.13
2022-11-19T05:07:46.972Z,37.80
2022-11-19T05:10:14.466Z,35.40
2022-11-19T05:12:41.684Z,34.50
2022-11-19T05:15:09.549Z,35.58
2022-11-19T05:17:36.740Z,34.83
2022-11-19T05:20:04.564Z,36.03
2022-11-19T05:22:31.777Z,36.03
2022-11-19T05:24:58.957Z,34.83
2022-11-19T05:27:26.085Z,36.47
2022-11-19T05:29:53.271Z,35.33
2022-11-19T05:32:20.501Z,34.85
2022-11-19T05:34:48.499Z,35.72
2022-11-19T05:37:15.617Z,35.80
2022-11-19T05:39:42.732Z,34.65
2022-11-19T05:42:09.892Z,35.67
2022-11-19T05:44:37.065Z,36.75
2022-11-19T05:47:04.272Z,34.93
2022-11-19T05:49:31.472Z,35.40
2022-11-19T05:51:58.644Z,33.22
2022-11-19T05:54:25.806Z,33.88
2022-11-19T05:56:52.993Z,34.50
2022-11-19T05:59:20.921Z,35.20
2022-11-19T06:01:48.351Z,33.53
2022-11-19T06:04:15.515Z,33.33
2022-11-19T06:06:42.764Z,34.55
2022-11-19T06:09:09.984Z,32.97
2022-11-19T06:11:50.516Z,34.35
2022-11-19T06:14:23.364Z,35.58
2022-11-19T06:16:55.586Z,35.05
2022-11-19T06:19:23.430Z,34.63
2022-11-19T06:21:52.745Z,34.03
2022-11-19T06:24:20.830Z,33.05
2022-11-19T06:26:48.135Z,33.45
2022-11-19T06:29:17.069Z,32.53
2022-11-19T06:31:44.845Z,33.55
2022-11-19T06:34:12.224Z,32.17
2022-11-19T06:36:43.923Z,32.17
2022-11-19T06:39:14.920Z,33.78
2022-11-19T06:41:42.098Z,33.17
2022-11-19T06:44:09.307Z,32.57
2022-11-19T06:46:36.483Z,33.65
2022-11-19T06:49:05.622Z,33.45
2022-11-19T06:51:33.133Z,32.28
2022-11-19T06:54:00.329Z,32.97
2022-11-19T06:56:27.648Z,32.13
2022-11-19T06:58:58.371Z,33.15
2022-11-19T07:01:25.626Z,33.85
2022-11-19T07:03:52.888Z,33.80
2022-11-19T07:06:20.051Z,32.72
2022-11-19T07:08:47.246Z,33.83
2022-11-19T07:11:26.778Z,34.50
2022-11-19T07:13:57.777Z,33.33
2022-11-19T07:16:27.267Z,33.88
2022-11-19T07:18:56.140Z,34.28
2022-11-19T07:21:23.431Z,30.92
2022-11-19T07:23:50.638Z,31.80
2022-11-19T07:26:17.952Z,31.67
2022-11-19T07:28:45.128Z,32.47
2022-11-19T07:31:12.295Z,32.45
2022-11-19T07:33:40.498Z,32.95
2022-11-19T07:36:12.808Z,31.38
2022-11-19T07:38:44.091Z,32.03
2022-11-19T07:41:29.754Z,32.93
2022-11-19T07:43:56.930Z,32.73
2022-11-19T07:46:24.242Z,30.67
2022-11-19T07:48:55.648Z,31.88
2022-11-19T07:51:23.953Z,31.13
2022-11-19T07:53:51.802Z,32.75
2022-11-19T07:56:19.807Z,31.10
2022-11-19T07:58:47.243Z,31.58
2022-11-19T08:01:20.556Z,31.33
2022-11-19T08:03:55.790Z,33.47
2022-11-19T08:06:26.626Z,31.85
2022-11-19T08:08:58.350Z,32.40
2022-11-19T08:11:25.584Z,34.38
2022-11-19T08:13:53.038Z,33.20
2022-11-19T08:16:39.110Z,34.83
2022-11-19T08:19:11.490Z,32.70
2022-11-19T08:21:45.046Z,34.55
2022-11-19T08:24:13.680Z,34.88
2022-11-19T08:26:41.880Z,33.15
2022-11-19T08:29:15.814Z,36.08
2022-11-19T08:31:45.771Z,32.92
2022-11-19T08:34:13.660Z,32.95
2022-11-19T08:36:40.838Z,34.38
2022-11-19T08:39:08.121Z,33.27
2022-11-19T08:41:54.138Z,35.95
2022-11-19T08:44:23.778Z,33.83
2022-11-19T08:46:51.009Z,34.65
2022-11-19T08:49:18.266Z,33.55
2022-11-19T08:51:45.410Z,35.47
2022-11-19T08:54:13.241Z,32.70
2022-11-19T08:56:40.573Z,31.73
2022-11-19T08:59:08.006Z,33.13
2022-11-19T09:01:35.232Z,32.38
2022-11-19T09:04:02.536Z,30.83
2022-11-19T09:06:29.748Z,30.48
2022-11-19T09:08:58.326Z,27.63
2022-11-19T09:11:25.926Z,22.02
2022-11-19T09:13:53.163Z,14.57
2022-11-19T09:16:20.355Z,10.50
2022-11-19T09:18:47.542Z,9.75
2022-11-19T09:21:15.125Z,10.43
2022-11-19T09:23:42.703Z,9.57
2022-11-19T09:26:14.869Z,10.40
2022-11-19T09:28:42.992Z,10.15
2022-11-19T09:31:13.392Z,9.80
2022-11-19T09:33:42.785Z,10.02
2022-11-19T09:36:11.344Z,9.95
2022-11-19T09:38:40.177Z,9.68
2022-11-19T09:41:53.212Z,9.65
2022-11-19T09:44:45.581Z,10.30
2022-11-19T09:47:26.993Z,9.73
2022-11-19T09:50:18.192Z,10.45
2022-11-19T09:53:09.216Z,9.40
2022-11-19T09:55:40.815Z,9.82
2022-11-19T09:58:34.060Z,9.43
2022-11-19T10:01:01.524Z,9.55
2022-11-19T10:03:33.486Z,9.65
2022-11-19T10:06:11.830Z,9.85
2022-11-19T10:09:04.897Z,9.88
2022-11-19T10:12:01.818Z,9.25
2022-11-19T10:14:49.231Z,9.13
2022-11-19T10:17:21.718Z,9.40
2022-11-19T10:20:12.817Z,9.23
2022-11-19T10:22:57.604Z,9.00
2022-11-19T10:25:35.838Z,8.95
2022-11-19T10:28:15.493Z,9.47
2022-11-19T10:30:49.116Z,9.05
2022-11-19T10:33:25.807Z,9.35
2022-11-19T10:36:03.969Z,9.20
2022-11-19T10:38:41.960Z,9.17
2022-11-19T10:41:21.521Z,9.10
2022-11-19T10:44:04.514Z,9.00
2022-11-19T10:46:31.914Z,8.80
2022-11-19T10:48:59.404Z,8.57
2022-11-19T10:51:39.444Z,8.48
2022-11-19T10:54:21.237Z,8.47
2022-11-19T10:56:49.574Z,8.75
2022-11-19T10:59:21.088Z,8.60
2022-11-19T11:02:16.612Z,8.63
2022-11-19T11:05:19.705Z,8.52
2022-11-19T11:07:58.165Z,8.27
2022-11-19T11:10:29.614Z,7.93
2022-11-19T11:13:23.407Z,7.90
2022-11-19T11:15:52.505Z,7.70
2022-11-19T11:18:24.799Z,7.85
2022-11-19T11:20:52.435Z,7.72
2022-11-19T11:23:24.135Z,7.60
2022-11-19T11:26:13.085Z,7.20
2022-11-19T11:29:00.823Z,7.00
2022-11-19T11:31:34.076Z,7.00
2022-11-19T11:34:02.358Z,6.70
2022-11-19T11:36:32.441Z,6.87
2022-11-19T11:39:01.491Z,6.47
2022-11-19T11:42:05.458Z,6.00
2022-11-19T11:44:29.542Z,6.25
2022-11-19T11:47:10.310Z,5.80
2022-11-19T11:50:01.804Z,5.82
2022-11-19T11:52:44.792Z,5.75
2022-11-19T11:55:38.644Z,5.63
2022-11-19T11:58:23.513Z,5.97
2022-11-19T12:00:54.695Z,5.60
2022-11-19T12:03:22.745Z,5.70
2022-11-19T12:06:19.212Z,5.32
2022-11-19T12:09:14.035Z,5.40
2022-11-19T12:11:57.932Z,5.43
2022-11-19T12:14:51.910Z,5.10
2022-11-19T12:17:29.927Z,5.22
2022-11-19T12:20:03.620Z,5.40
2022-11-19T12:22:51.781Z,5.32
2022-11-19T12:25:32.325Z,4.90
2022-11-19T12:28:27.323Z,4.85
2022-11-19T12:31:18.681Z,5.07
2022-11-19T12:33:48.895Z,4.60
2022-11-19T12:36:38.321Z,4.53
2022-11-19T12:39:23.115Z,4.80
2022-11-19T12:42:02.910Z,4.88
2022-11-19T12:45:03.445Z,4.63
2022-11-19T12:47:51.878Z,4.78
2022-11-19T12:50:28.220Z,4.30
2022-11-19T12:53:26.723Z,4.18
2022-11-19T12:56:20.311Z,4.13
2022-11-19T12:59:08.589Z,4.10
2022-11-19T13:01:40.600Z,4.10
2022-11-19T13:04:19.561Z,4.13
2022-11-19T13:07:01.682Z,4.15
2022-11-19T13:10:01.496Z,4.03
2022-11-19T13:12:36.810Z,4.30
2022-11-19T13:15:27.939Z,4.00
2022-11-19T13:17:58.820Z,4.35
2022-11-19T13:20:35.130Z,4.35
2022-11-19T13:23:05.391Z,4.20
2022-11-19T13:25:39.962Z,4.25
2022-11-19T13:28:20.288Z,4.40
2022-11-19T13:30:50.643Z,4.32
2022-11-19T13:33:29.157Z,4.50
2022-11-19T13:36:25.674Z,4.30
2022-11-19T13:38:58.665Z,4.40
2022-11-19T13:42:17.594Z,4.00
2022-11-19T13:44:45.037Z,4.40
2022-11-19T13:47:39.739Z,4.20
2022-11-19T13:50:17.488Z,4.00
2022-11-19T13:53:00.459Z,4.20
2022-11-19T13:55:38.016Z,4.00
2022-11-19T13:58:13.943Z,3.90
2022-11-19T14:00:54.657Z,3.95
2022-11-19T14:03:48.126Z,3.85
2022-11-19T14:06:54.248Z,3.95
2022-11-19T14:09:42.531Z,3.67
2022-11-19T14:12:39.820Z,4.20
2022-11-19T14:15:51.816Z,3.80
2022-11-19T14:18:54.196Z,3.95
2022-11-19T14:21:44.500Z,3.85
2022-11-19T14:24:45.200Z,3.70
2022-11-19T14:27:26.568Z,3.80
2022-11-19T14:29:55.552Z,3.90
2022-11-19T14:32:46.358Z,3.90
2022-11-19T14:35:35.462Z,3.50
2022-11-19T14:38:22.141Z,3.55
2022-11-19T14:41:02.891Z,3.47
2022-11-19T14:43:48.530Z,3.38
2022-11-19T14:46:15.602Z,3.55
2022-11-19T14:48:42.715Z,3.47
2022-11-19T14:51:12.773Z,3.50
2022-11-19T14:54:31.678Z,3.38
2022-11-19T14:57:03.801Z,3.67
2022-11-19T14:59:35.493Z,3.30
2022-11-19T15:02:27.074Z,3.60
2022-11-19T15:05:12.235Z,3.55
2022-11-19T15:07:42.654Z,3.55
2022-11-19T15:10:10.023Z,4.88
2022-11-19T15:12:43.318Z,6.10
2022-11-19T15:15:19.335Z,7.95
2022-11-19T15:18:01.958Z,13.67
2022-11-19T15:20:38.333Z,16.40
2022-11-19T15:23:25.870Z,16.83
2022-11-19T15:26:11.756Z,20.05
2022-11-19T15:28:58.696Z,18.63
2022-11-19T15:31:29.544Z,19.60
2022-11-19T15:34:23.836Z,19.75
2022-11-19T15:36:58.857Z,21.15
2022-11-19T15:39:42.176Z,21.55
2022-11-19T15:42:16.884Z,19.70
2022-11-19T15:44:57.013Z,19.65
2022-11-19T15:47:25.850Z,20.20
2022-11-19T15:49:54.860Z,21.17
2022-11-19T15:52:27.527Z,22.52
2022-11-19T15:55:19.079Z,21.30
2022-11-19T15:57:51.171Z,22.45
2022-11-19T16:00:23.008Z,23.20
2022-11-19T16:02:51.904Z,22.43
2022-11-19T16:05:25.924Z,22.73
2022-11-19T16:07:54.368Z,22.75
2022-11-19T16:10:33.772Z,23.15
2022-11-19T16:13:42.332Z,21.63
2022-11-19T16:16:40.814Z,21.83
2022-11-19T16:19:08.032Z,22.20
2022-11-19T16:21:39.848Z,22.27
2022-11-19T16:24:31.833Z,22.43
2022-11-19T16:27:00.986Z,24.00
2022-11-19T16:29:28.662Z,22.92
2022-11-19T16:31:59.557Z,22.35
2022-11-19T16:34:31.176Z,22.17
2022-11-19T16:36:59.100Z,22.55
2022-11-19T16:39:29.050Z,21.40
2022-11-19T16:42:17.332Z,21.58
2022-11-19T16:44:45.937Z,22.03
2022-11-19T16:47:35.639Z,23.42
2022-11-19T16:50:32.452Z,21.02
2022-11-19T16:53:01.200Z,23.27
2022-11-19T16:55:33.714Z,22.52
2022-11-19T16:58:19.205Z,23.37
2022-11-19T17:00:49.841Z,20.33
2022-11-19T17:03:27.511Z,23.30
2022-11-19T17:05:56.193Z,23.33
2022-11-19T17:08:29.279Z,22.95
2022-11-19T17:11:35.568Z,23.38
2022-11-19T17:14:40.260Z,23.50
2022-11-19T17:17:25.405Z,23.73
2022-11-19T17:19:53.309Z,23.92
2022-11-19T17:22:25.848Z,23.13
2022-11-19T17:24:53.432Z,23.63
2022-11-19T17:27:37.906Z,24.10
2022-11-19T17:30:18.907Z,24.73
2022-11-19T17:32:50.640Z,24.05
2022-11-19T17:35:36.468Z,23.60
2022-11-19T17:38:29.889Z,21.92
2022-11-19T17:40:59.713Z,23.70
2022-11-19T17:43:54.159Z,23.60
2022-11-19T17:46:23.273Z,24.73
2022-11-19T17:48:51.317Z,25.17
2022-11-19T17:51:23.281Z,22.88
2022-11-19T17:53:51.772Z,24.63
2022-11-19T17:56:23.543Z,24.35
2022-11-19T17:58:50.730Z,23.73
2022-11-19T18:01:18.043Z,22.63
2022-11-19T18:03:45.264Z,24.33
2022-11-19T18:06:14.587Z,25.02
2022-11-19T18:08:42.362Z,24.13
2022-11-19T18:11:15.728Z,23.40
2022-11-19T18:13:44.133Z,23.75
2022-11-19T18:16:17.291Z,23.45
2022-11-19T18:18:45.107Z,23.73
2022-11-19T18:21:14.512Z,24.02
2022-11-19T18:23:43.465Z,25.48
2022-11-19T18:26:11.828Z,23.13
2022-11-19T18:28:39.354Z,24.10
2022-11-19T18:31:13.286Z,24.77
2022-11-19T18:33:41.734Z,24.42
2022-11-19T18:36:09.429Z,24.73
2022-11-19T18:38:36.571Z,24.98
2022-11-19T18:41:04.319Z,24.20
2022-11-19T18:43:50.319Z,24.83
2022-11-19T18:46:17.505Z,26.08
2022-11-19T18:48:45.048Z,24.25
2022-11-19T18:51:12.729Z,24.70
2022-11-19T18:53:40.168Z,23.73
2022-11-19T18:56:12.457Z,25.10
2022-11-19T18:58:39.623Z,24.83
2022-11-19T19:01:07.161Z,22.60
2022-11-19T19:03:34.930Z,26.43
2022-11-19T19:06:06.497Z,23.70
2022-11-19T19:08:33.892Z,24.88
2022-11-19T19:11:21.993Z,25.13
2022-11-19T19:13:49.094Z,25.50
2022-11-19T19:16:18.918Z,25.45
2022-11-19T19:18:46.110Z,26.83
2022-11-19T19:21:18.556Z,25.27
2022-11-19T19:23:45.828Z,24.60
2022-11-19T19:26:14.290Z,25.27
2022-11-19T19:28:41.957Z,25.60
2022-11-19T19:31:12.403Z,26.15
2022-11-19T19:33:46.112Z,25.88
2022-11-19T19:36:14.240Z,25.85
2022-11-19T19:38:42.080Z,24.08
2022-11-19T19:41:21.106Z,26.88
2022-11-19T19:43:49.363Z,26.48
2022-11-19T19:46:18.252Z,27.52
2022-11-19T19:48:51.649Z,26.50
2022-11-19T19:51:20.923Z,25.67
2022-11-19T19:53:48.915Z,25.05
2022-11-19T19:56:21.542Z,27.57
2022-11-19T19:58:50.763Z,26.75
2022-11-19T20:09:38.609Z,27.80
2022-11-19T20:12:06.342Z,27.77
2022-11-19T20:14:33.485Z,27.37
2022-11-19T20:17:00.623Z,28.20
2022-11-19T20:19:27.812Z,28.27
2022-11-19T20:21:54.930Z,27.23
2022-11-19T20:24:24.526Z,27.47
2022-11-19T20:26:51.837Z,27.45
2022-11-19T20:29:21.528Z,27.98
2022-11-19T20:31:49.771Z,27.48
2022-11-19T20:34:17.722Z,27.73
2022-11-19T20:36:45.139Z,27.87
2022-11-19T20:39:12.848Z,26.63
2022-11-19T20:41:58.577Z,27.85
2022-11-19T20:44:25.854Z,26.73
2022-11-19T20:46:58.276Z,27.27
2022-11-19T20:49:28.177Z,26.58
2022-11-19T20:51:56.195Z,26.60
2022-11-19T20:54:24.656Z,27.88
2022-11-19T20:56:53.070Z,27.08
2022-11-19T20:59:21.240Z,27.50
2022-11-19T21:01:49.932Z,28.10
2022-11-19T21:04:18.077Z,27.20
2022-11-19T21:06:45.372Z,26.75
2022-11-19T21:09:12.777Z,27.23
2022-11-19T21:11:39.936Z,27.88
2022-11-19T21:14:07.209Z,27.67
2022-11-19T21:16:34.419Z,26.23
2022-11-19T21:19:01.913Z,27.25
2022-11-19T21:21:29.162Z,27.25
2022-11-19T21:23:56.679Z,27.20
2022-11-19T21:26:25.703Z,26.38
2022-11-19T21:28:55.276Z,26.93
2022-11-19T21:31:38.668Z,26.25
2022-11-19T21:34:12.257Z,27.33
2022-11-19T21:36:40.930Z,27.23
2022-11-19T21:39:08.942Z,27.65
2022-11-19T21:41:36.642Z,27.15
2022-11-19T21:44:04.893Z,28.60
2022-11-19T21:46:32.589Z,28.08
2022-11-19T21:48:59.987Z,26.30
2022-11-19T21:51:27.356Z,27.42
2022-11-19T21:53:58.097Z,28.55
2022-11-19T21:56:27.100Z,28.13
2022-11-19T21:58:54.257Z,28.17
2022-11-19T22:01:21.418Z,27.30
2022-11-19T22:03:48.776Z,26.63
2022-11-19T22:06:15.955Z,27.73
2022-11-19T22:08:43.351Z,25.93
2022-11-19T22:11:30.280Z,26.70
2022-11-19T22:14:03.609Z,27.60
2022-11-19T22:16:32.645Z,27.90
2022-11-19T22:18:59.936Z,28.37
2022-11-19T22:21:29.101Z,26.77
2022-11-19T22:23:56.918Z,27.92
2022-11-19T22:26:24.098Z,27.60
2022-11-19T22:28:51.279Z,27.70
2022-11-19T22:31:18.554Z,27.20
2022-11-19T22:33:47.789Z,28.45
2022-11-19T22:36:14.993Z,27.45
2022-11-19T22:38:42.149Z,28.38
2022-11-19T22:41:14.699Z,27.40
2022-11-19T22:43:42.698Z,28.17
2022-11-19T22:46:11.934Z,27.97
2022-11-19T22:48:39.379Z,29.50
2022-11-19T22:51:16.311Z,28.63
2022-11-19T22:53:44.209Z,34.70
2022-11-19T22:56:13.569Z,29.02
2022-11-19T22:58:41.497Z,29.67
2022-11-19T23:01:16.536Z,31.08
2022-11-19T23:03:44.599Z,30.93
2022-11-19T23:06:11.829Z,30.73
2022-11-19T23:08:39.090Z,35.40
2022-11-19T23:11:07.530Z,35.88
2022-11-19T23:13:38.928Z,29.02
2022-11-19T23:16:09.229Z,30.67
2022-11-19T23:18:41.092Z,30.00
2022-11-19T23:21:13.152Z,30.05
2022-11-19T23:23:40.956Z,29.73
2022-11-19T23:26:10.005Z,27.23
2022-11-19T23:28:37.985Z,28.13
2022-11-19T23:31:10.902Z,27.05
2022-11-19T23:33:38.453Z,26.95
2022-11-19T23:36:08.615Z,28.55
2022-11-19T23:38:39.044Z,27.50
2022-11-19T23:41:08.866Z,28.08
2022-11-19T23:43:36.776Z,28.10
2022-11-19T23:46:15.679Z,27.85
2022-11-19T23:48:44.513Z,29.43
2022-11-19T23:51:17.379Z,33.17
2022-11-19T23:53:44.707Z,28.70
2022-11-19T23:56:12.654Z,28.30
2022-11-19T23:58:40.152Z,30.95
